Gardiner, OR

2:58 AM PDT on August 28, 2014 (GMT -0700)
North Bend | Change Station
CLOSE
Current Station
Airport
Location: North Bend,
Elevation: 16 ft
Nearby Weather Stations

Elev 16 ft 43.42 °N, 124.25 °W | Updated 3 minutes ago

Overcast
Overcast
55 °F
Feels Like 55 °F
N
5
Wind Variable Wind from North

Today
High -- | Low -- °F
--% Chance of Precip.
Yesterday
High -- | Low -- °F
Precip. -- in
6:35 AM 7:58 PM
Waxing Crescent, 7% visible
Pressure 30.12 in
Visibility 1.5 miles
Clouds Overcast 300 ft
Dew Point 55 °F
Humidity 100%
Rainfall 0.00 in
Snow Depth Not available.
UV 0 out of 12
Pollen 3.50 out of 12
Air Quality Not available.
Flu Activity Not available.
METAR KOTH 280955Z 35004KT 1 1/2SM OVC003 13/13 A3012 RMK AO1

More Conditions Fewer Conditions

Pressure 30.12 in
Visibility 1.5 miles
Clouds Overcast 300 ft
Dew Point 55 °F
Humidity 100%
Rainfall 0.00 in
Snow Depth Not available.
UV 0 out of 12
Pollen 3.50 out of 12
Air Quality Not available.
Flu Activity Not available.
METAR KOTH 280955Z 35004KT 1 1/2SM OVC003 13/13 A3012 RMK AO1

More Conditions Fewer Conditions

10-Day Weather Forecast

Almanac

Astronomy

Aug. 28, 2014 Rise Set
Actual Time 6:35 AM PDT 7:58 PM PDT
Civil Twilight 6:05 AM PDT 8:28 PM PDT
Nautical Twilight 5:29 AM PDT 9:04 PM PDT
Astronomical Twilight 4:51 AM PDT 9:42 PM PDT
Moon 9:40 AM PDT 9:18 PM PDT
Length of Visible Light 14h 22m
Length of Day
13h 23m
Tomorrow will be 2m 50s shorter.
Waxing Crescent, 7% of the Moon is Illuminated
Today
Waxing Crescent
Sep 2
First Quarter
Sep 8
Full
Sep 15
Last Quarter
Sep 24
New

Today's Extremes

State Highs State Lows

Community

WunderPhotos

Upload Photos

1,747,918 photos uploaded!

Nearby

Snow Depth

Station Depth Elevation
Holland Meadows 0 in 4900 ft
Salt Creek Falls 0 in 4000 ft
Roaring River 0 in 4900 ft
Cascade Summit 0 in 4880 ft
Diamond Lake 1 in 5315 ft

Earthquake Activity

City Distance Mag. Time & Date
Waldport, Oregon 96 miles 2.5 10:59 PM PDT
2014-08-25
Minimum magnitude displayed is 2.5.

Coastal Water Temperatures

Place Temperature
Port Orford, OR 54.0 °F
Charleston, OR 51.1 °F
South Beach, OR 50.0 °F

Nearby Weather Stations